SWR54 LSZH-KBOS
Flight info
| Callsign | SWR54 |
|---|---|
| Flight time | N/A |
| Altitude | 34000 |
| Route | VEBIT T10 TORPA DCT REKLA DCT RLP DCT ROTSI DCT KOTUN DCT AMAXA DCT VESAN DCT RATUK DCT SOVAT/N0475F380 L613 SANDY DCT ODVIK DCT SAM/N0479F400 N19 ADKIK DCT FONZU DCT LESLU DCT BIBLA/M084F400 DCT DINIM/M084F390 NATG TUDEP/N0476F400 N526A TOPPS DCT AJJAY OOSHN5 |
| Aircraft | A359/H-SDE2E3GHIJ3J4J5LM1ORWXY/LB1D1 |
Departure
| Time | 2026-04-26 14:46 |
|---|---|
| Airport | Zürich Airport (LSZH) |
Arrival
| Time | N/A |
|---|---|
| Airport | Boston Logan International Airport (KBOS) |
| Time | Latitude | Longitude | Altitude | Speed | Heading |
|---|---|---|---|---|---|
| 2026-04-26 14:31 | 47.46058 | 8.55433 | 1404 ft | 0 kts | 6° |
| 2026-04-26 14:35 | 47.46053 | 8.55432 | 1404 ft | 2 kts | 6° |
| 2026-04-26 14:35 | 47.46034 | 8.55429 | 1406 ft | 3 kts | 6° |
| 2026-04-26 14:35 | 47.46015 | 8.55426 | 1408 ft | 3 kts | 358° |
| 2026-04-26 14:35 | 47.45996 | 8.55433 | 1411 ft | 3 kts | 333° |
| 2026-04-26 14:36 | 47.45980 | 8.55447 | 1410 ft | 3 kts | 307° |
| 2026-04-26 14:36 | 47.45970 | 8.55470 | 1415 ft | 3 kts | 286° |
| 2026-04-26 14:36 | 47.45968 | 8.55479 | 1412 ft | 0 kts | 272° |
| 2026-04-26 14:38 | 47.45968 | 8.55472 | 1415 ft | 3 kts | 272° |
| 2026-04-26 14:38 | 47.45973 | 8.55396 | 1408 ft | 11 kts | 276° |
| 2026-04-26 14:38 | 47.45979 | 8.55303 | 1412 ft | 6 kts | 276° |
| 2026-04-26 14:38 | 47.45983 | 8.55256 | 1405 ft | 8 kts | 276° |
| 2026-04-26 14:39 | 47.45991 | 8.55142 | 1405 ft | 8 kts | 276° |
| 2026-04-26 14:39 | 47.45998 | 8.55044 | 1404 ft | 11 kts | 276° |
| 2026-04-26 14:39 | 47.46031 | 8.54934 | 1407 ft | 13 kts | 331° |
| 2026-04-26 14:39 | 47.46121 | 8.54871 | 1406 ft | 15 kts | 335° |
| 2026-04-26 14:40 | 47.46224 | 8.54799 | 1400 ft | 17 kts | 335° |
| 2026-04-26 14:40 | 47.46341 | 8.54718 | 1401 ft | 19 kts | 335° |
| 2026-04-26 14:40 | 47.46462 | 8.54635 | 1402 ft | 19 kts | 335° |
| 2026-04-26 14:40 | 47.46582 | 8.54554 | 1406 ft | 19 kts | 335° |
| 2026-04-26 14:41 | 47.46709 | 8.54468 | 1401 ft | 22 kts | 335° |
| 2026-04-26 14:41 | 47.46857 | 8.54380 | 1384 ft | 24 kts | 334° |
| 2026-04-26 14:41 | 47.46991 | 8.54287 | 1386 ft | 20 kts | 335° |
| 2026-04-26 14:41 | 47.47119 | 8.54197 | 1397 ft | 20 kts | 335° |
| 2026-04-26 14:42 | 47.47245 | 8.54111 | 1402 ft | 19 kts | 335° |
| 2026-04-26 14:42 | 47.47340 | 8.54047 | 1403 ft | 11 kts | 335° |
| 2026-04-26 14:42 | 47.47411 | 8.53998 | 1402 ft | 11 kts | 335° |
| 2026-04-26 14:42 | 47.47480 | 8.53950 | 1408 ft | 12 kts | 335° |
| 2026-04-26 14:43 | 47.47557 | 8.53896 | 1407 ft | 12 kts | 334° |
| 2026-04-26 14:43 | 47.47606 | 8.53811 | 1412 ft | 6 kts | 290° |
| 2026-04-26 14:43 | 47.47607 | 8.53804 | 1411 ft | 0 kts | 285° |
| 2026-04-26 14:44 | 47.47607 | 8.53758 | 1408 ft | 11 kts | 261° |
| 2026-04-26 14:44 | 47.47572 | 8.53636 | 1411 ft | 12 kts | 237° |
| 2026-04-26 14:44 | 47.47513 | 8.53636 | 1413 ft | 0 kts | 156° |
| 2026-04-26 14:44 | 47.47511 | 8.53638 | 1413 ft | 1 kts | 156° |
| 2026-04-26 14:45 | 47.47492 | 8.53650 | 1409 ft | 7 kts | 156° |
| 2026-04-26 14:45 | 47.47384 | 8.53723 | 1406 ft | 50 kts | 154° |
| 2026-04-26 14:45 | 47.46576 | 8.54282 | 1385 ft | 137 kts | 155° |
| 2026-04-26 14:45 | 47.45552 | 8.54995 | 1516 ft | 179 kts | 152° |
| 2026-04-26 14:46 | 47.44414 | 8.55782 | 2276 ft | 180 kts | 153° |
| 2026-04-26 14:46 | 47.43363 | 8.56766 | 2959 ft | 182 kts | 128° |
| 2026-04-26 14:46 | 47.42871 | 8.58447 | 3432 ft | 181 kts | 91° |
| 2026-04-26 14:46 | 47.43230 | 8.60177 | 3988 ft | 180 kts | 53° |
| 2026-04-26 14:47 | 47.44263 | 8.61164 | 4486 ft | 183 kts | 14° |
| 2026-04-26 14:47 | 47.45545 | 8.60963 | 4954 ft | 194 kts | 337° |
| 2026-04-26 14:47 | 47.46522 | 8.59591 | 5519 ft | 199 kts | 299° |
| 2026-04-26 14:47 | 47.46798 | 8.57646 | 6113 ft | 199 kts | 270° |
| 2026-04-26 14:48 | 47.46687 | 8.55514 | 6430 ft | 219 kts | 260° |
| 2026-04-26 14:48 | 47.46327 | 8.53230 | 6754 ft | 235 kts | 255° |
| 2026-04-26 14:48 | 47.45862 | 8.50871 | 7325 ft | 242 kts | 252° |
| 2026-04-26 14:48 | 47.45255 | 8.48540 | 8034 ft | 244 kts | 245° |
| 2026-04-26 14:49 | 47.44457 | 8.46320 | 8794 ft | 248 kts | 238° |
| 2026-04-26 14:49 | 47.43467 | 8.44099 | 9189 ft | 267 kts | 235° |
| 2026-04-26 14:49 | 47.42377 | 8.41796 | 9800 ft | 276 kts | 234° |
| 2026-04-26 14:49 | 47.41271 | 8.39466 | 10403 ft | 288 kts | 235° |
| 2026-04-26 14:50 | 47.40083 | 8.36957 | 10718 ft | 308 kts | 235° |
| 2026-04-26 14:50 | 47.38864 | 8.34228 | 11021 ft | 328 kts | 240° |
| 2026-04-26 14:50 | 47.37748 | 8.31223 | 11544 ft | 338 kts | 243° |
| 2026-04-26 14:50 | 47.36655 | 8.28138 | 12280 ft | 342 kts | 243° |
| 2026-04-26 14:51 | 47.35542 | 8.24998 | 12985 ft | 348 kts | 243° |
| 2026-04-26 14:51 | 47.34414 | 8.21807 | 13662 ft | 353 kts | 243° |
| 2026-04-26 14:51 | 47.33273 | 8.18595 | 14391 ft | 355 kts | 244° |
| 2026-04-26 14:51 | 47.32120 | 8.15356 | 15084 ft | 357 kts | 243° |
| 2026-04-26 14:52 | 47.30962 | 8.12095 | 15718 ft | 362 kts | 244° |
| 2026-04-26 14:52 | 47.29787 | 8.08786 | 16360 ft | 365 kts | 244° |
| 2026-04-26 14:52 | 47.29003 | 8.06585 | 16815 ft | 366 kts | 244° |
| 2026-04-26 14:52 | 47.27879 | 8.03204 | 17466 ft | 369 kts | 249° |
| 2026-04-26 14:53 | 47.27237 | 7.99555 | 18096 ft | 370 kts | 265° |
| 2026-04-26 14:53 | 47.27232 | 7.95759 | 18698 ft | 373 kts | 274° |
| 2026-04-26 14:53 | 47.27493 | 7.91945 | 19276 ft | 376 kts | 278° |
| 2026-04-26 14:53 | 47.28011 | 7.86869 | 20070 ft | 380 kts | 279° |
| 2026-04-26 14:54 | 47.28301 | 7.84271 | 20530 ft | 382 kts | 279° |
| 2026-04-26 14:54 | 47.28731 | 7.80394 | 21118 ft | 384 kts | 279° |
| 2026-04-26 14:54 | 47.29146 | 7.76489 | 21728 ft | 387 kts | 279° |
| 2026-04-26 14:54 | 47.29540 | 7.72597 | 22311 ft | 391 kts | 278° |
| 2026-04-26 14:55 | 47.29926 | 7.68615 | 22907 ft | 393 kts | 278° |
| 2026-04-26 14:55 | 47.30338 | 7.64618 | 23489 ft | 397 kts | 281° |
| 2026-04-26 14:55 | 47.31011 | 7.60667 | 24011 ft | 399 kts | 286° |
| 2026-04-26 14:55 | 47.31792 | 7.56720 | 24476 ft | 402 kts | 287° |
| 2026-04-26 14:56 | 47.32628 | 7.52766 | 24957 ft | 405 kts | 288° |
| 2026-04-26 14:56 | 47.33495 | 7.48786 | 25452 ft | 408 kts | 288° |
| 2026-04-26 14:56 | 47.34374 | 7.44786 | 25913 ft | 411 kts | 289° |
| 2026-04-26 14:56 | 47.35261 | 7.40752 | 26376 ft | 414 kts | 289° |
| 2026-04-26 14:57 | 47.36146 | 7.36702 | 26909 ft | 416 kts | 289° |
| 2026-04-26 14:57 | 47.37021 | 7.32673 | 27418 ft | 418 kts | 289° |
| 2026-04-26 14:57 | 47.37906 | 7.28576 | 27882 ft | 420 kts | 288° |
| 2026-04-26 14:57 | 47.38794 | 7.24449 | 28319 ft | 423 kts | 289° |
| 2026-04-26 14:58 | 47.39685 | 7.20292 | 28759 ft | 426 kts | 289° |
| 2026-04-26 14:58 | 47.40544 | 7.16097 | 29174 ft | 429 kts | 285° |
| 2026-04-26 14:58 | 47.41247 | 7.11801 | 29616 ft | 432 kts | 284° |
| 2026-04-26 14:58 | 47.41918 | 7.07454 | 30028 ft | 435 kts | 284° |
| 2026-04-26 14:59 | 47.42569 | 7.03082 | 30384 ft | 438 kts | 284° |
| 2026-04-26 14:59 | 47.43212 | 6.98679 | 30729 ft | 440 kts | 284° |
| 2026-04-26 14:59 | 47.43855 | 6.94238 | 31074 ft | 442 kts | 283° |
| 2026-04-26 14:59 | 47.44281 | 6.91293 | 31316 ft | 443 kts | 283° |
| 2026-04-26 15:00 | 47.45144 | 6.85326 | 31759 ft | 446 kts | 283° |
| 2026-04-26 15:00 | 47.45793 | 6.80834 | 32073 ft | 448 kts | 283° |
| 2026-04-26 15:00 | 47.46436 | 6.76382 | 32386 ft | 450 kts | 283° |
| 2026-04-26 15:00 | 47.47089 | 6.71848 | 32689 ft | 451 kts | 283° |
| 2026-04-26 15:01 | 47.47723 | 6.67293 | 32952 ft | 454 kts | 281° |
| 2026-04-26 15:01 | 47.48160 | 6.62641 | 33180 ft | 458 kts | 279° |
| 2026-04-26 15:01 | 47.48538 | 6.57955 | 33455 ft | 460 kts | 278° |
| 2026-04-26 15:01 | 47.48889 | 6.53241 | 33725 ft | 461 kts | 278° |
| 2026-04-26 15:02 | 47.49226 | 6.48513 | 33989 ft | 463 kts | 278° |
| 2026-04-26 15:02 | 47.49557 | 6.43770 | 34131 ft | 459 kts | 277° |
| 2026-04-26 15:02 | 47.49882 | 6.39082 | 34157 ft | 460 kts | 277° |
| 2026-04-26 15:03 | 47.50545 | 6.29533 | 34149 ft | 470 kts | 277° |
| 2026-04-26 15:03 | 47.51207 | 6.19967 | 34161 ft | 470 kts | 278° |
| 2026-04-26 15:04 | 47.51867 | 6.10341 | 34162 ft | 471 kts | 278° |
| 2026-04-26 15:04 | 47.52519 | 6.00709 | 34163 ft | 470 kts | 278° |
| 2026-04-26 15:05 | 47.53347 | 5.91123 | 34151 ft | 468 kts | 285° |
| 2026-04-26 15:05 | 47.55773 | 5.82289 | 34155 ft | 462 kts | 304° |
| 2026-04-26 15:06 | 47.59779 | 5.74900 | 34159 ft | 460 kts | 313° |
| 2026-04-26 15:06 | 47.64124 | 5.67910 | 34162 ft | 460 kts | 314° |
| 2026-04-26 15:07 | 47.70636 | 5.57531 | 34169 ft | 459 kts | 314° |
| 2026-04-26 15:07 | 47.74951 | 5.50553 | 34172 ft | 459 kts | 313° |
| 2026-04-26 15:08 | 47.79254 | 5.43550 | 34172 ft | 458 kts | 314° |
| 2026-04-26 15:08 | 47.83549 | 5.36538 | 34179 ft | 458 kts | 314° |
| 2026-04-26 15:09 | 47.87843 | 5.29512 | 34180 ft | 457 kts | 314° |
| 2026-04-26 15:09 | 47.92119 | 5.22502 | 34181 ft | 457 kts | 314° |
| 2026-04-26 15:10 | 47.95666 | 5.16672 | 34183 ft | 456 kts | 313° |
| 2026-04-26 15:10 | 48.00624 | 5.08492 | 34169 ft | 456 kts | 313° |
| 2026-04-26 15:11 | 48.04880 | 5.01452 | 34184 ft | 457 kts | 313° |
| 2026-04-26 15:11 | 48.09154 | 4.94365 | 34184 ft | 457 kts | 313° |
| 2026-04-26 15:12 | 48.13406 | 4.87295 | 34192 ft | 457 kts | 313° |
| 2026-04-26 15:12 | 48.17651 | 4.80220 | 34189 ft | 456 kts | 313° |
| 2026-04-26 15:13 | 48.21887 | 4.73140 | 34195 ft | 456 kts | 313° |
| 2026-04-26 15:13 | 48.26090 | 4.66098 | 34194 ft | 456 kts | 313° |
| 2026-04-26 15:14 | 48.30316 | 4.59006 | 34198 ft | 456 kts | 313° |
| 2026-04-26 15:14 | 48.34537 | 4.51891 | 34203 ft | 456 kts | 313° |
| 2026-04-26 15:15 | 48.38750 | 4.44769 | 34209 ft | 455 kts | 312° |
| 2026-04-26 15:15 | 48.49590 | 4.26364 | 34210 ft | 455 kts | 312° |
| 2026-04-26 15:16 | 48.66298 | 3.97743 | 34213 ft | 453 kts | 311° |
| 2026-04-26 15:16 | 48.75176 | 3.84230 | 34214 ft | 453 kts | 322° |
| 2026-04-26 15:16 | 48.85384 | 3.72957 | 34225 ft | 454 kts | 323° |
| 2026-04-26 15:17 | 49.02445 | 3.54241 | 34229 ft | 454 kts | 323° |
| 2026-04-26 15:17 | 49.26216 | 3.27820 | 34240 ft | 454 kts | 322° |
| 2026-04-26 15:18 | 49.46606 | 3.04900 | 34229 ft | 456 kts | 322° |
| 2026-04-26 15:18 | 49.67057 | 2.81667 | 34238 ft | 456 kts | 322° |
| 2026-04-26 15:19 | 49.87514 | 2.58565 | 34247 ft | 459 kts | 322° |
| 2026-04-26 15:19 | 50.08273 | 2.35405 | 34260 ft | 459 kts | 322° |
| 2026-04-26 15:20 | 50.29043 | 2.11935 | 34242 ft | 462 kts | 321° |
| 2026-04-26 15:20 | 50.49003 | 1.86708 | 34264 ft | 460 kts | 316° |
| 2026-04-26 15:21 | 50.67786 | 1.60762 | 34270 ft | 464 kts | 316° |
| 2026-04-26 15:21 | 50.77505 | 1.47286 | 34425 ft | 465 kts | 316° |
| 2026-04-26 15:22 | 50.82349 | 1.40547 | 35097 ft | 462 kts | 316° |
| 2026-04-26 15:22 | 50.87190 | 1.33792 | 35460 ft | 466 kts | 316° |
| 2026-04-26 15:22 | 50.92029 | 1.27021 | 36064 ft | 463 kts | 316° |
| 2026-04-26 15:22 | 50.96852 | 1.20252 | 36552 ft | 462 kts | 316° |
| 2026-04-26 15:23 | 51.01658 | 1.13452 | 37001 ft | 461 kts | 314° |
| 2026-04-26 15:23 | 51.05710 | 1.05632 | 37411 ft | 457 kts | 300° |
| 2026-04-26 15:23 | 51.08251 | 0.96441 | 37804 ft | 455 kts | 287° |
| 2026-04-26 15:23 | 51.10044 | 0.86764 | 38102 ft | 457 kts | 285° |
| 2026-04-26 15:24 | 51.11689 | 0.77143 | 38254 ft | 456 kts | 285° |
| 2026-04-26 15:24 | 51.13368 | 0.67325 | 38232 ft | 453 kts | 285° |
| 2026-04-26 15:24 | 51.16035 | 0.47887 | 38210 ft | 452 kts | 272° |
| 2026-04-26 15:25 | 51.14814 | 0.31221 | 38210 ft | 454 kts | 261° |
| 2026-04-26 15:25 | 51.10937 | -0.03274 | 38287 ft | 454 kts | 260° |
| 2026-04-26 15:26 | 51.06462 | -0.42805 | 38287 ft | 454 kts | 260° |
| 2026-04-26 15:26 | 51.01849 | -0.82288 | 38270 ft | 454 kts | 260° |
| 2026-04-26 15:27 | 50.97144 | -1.21361 | 38291 ft | 453 kts | 259° |
| 2026-04-26 15:27 | 50.94690 | -1.41259 | 38861 ft | 452 kts | 259° |
| 2026-04-26 15:27 | 50.92215 | -1.60509 | 39390 ft | 452 kts | 258° |
| 2026-04-26 15:28 | 50.89670 | -1.80107 | 39848 ft | 453 kts | 258° |
| 2026-04-26 15:28 | 50.87091 | -1.99724 | 40249 ft | 455 kts | 258° |
| 2026-04-26 15:28 | 50.81813 | -2.39037 | 40274 ft | 456 kts | 258° |
| 2026-04-26 15:29 | 50.79850 | -2.58792 | 40272 ft | 456 kts | 269° |
| 2026-04-26 15:29 | 50.80233 | -2.78848 | 40268 ft | 457 kts | 271° |
| 2026-04-26 15:30 | 50.81824 | -3.59236 | 40265 ft | 457 kts | 270° |
| 2026-04-26 15:30 | 50.82640 | -3.99210 | 40254 ft | 459 kts | 274° |
| 2026-04-26 15:31 | 50.86316 | -4.59715 | 40259 ft | 461 kts | 273° |
| 2026-04-26 15:32 | 50.88826 | -5.07196 | 40266 ft | 464 kts | 273° |
| 2026-04-26 15:32 | 50.91456 | -5.61457 | 40269 ft | 463 kts | 272° |
| 2026-04-26 15:33 | 50.93274 | -6.02443 | 40273 ft | 467 kts | 272° |
| 2026-04-26 15:33 | 50.94955 | -6.43646 | 40281 ft | 469 kts | 272° |
| 2026-04-26 15:34 | 50.96496 | -6.85011 | 40276 ft | 471 kts | 272° |
| 2026-04-26 15:34 | 50.97895 | -7.26524 | 40279 ft | 471 kts | 271° |
| 2026-04-26 15:35 | 50.99141 | -7.67885 | 40274 ft | 472 kts | 271° |
| 2026-04-26 15:35 | 51.01427 | -8.09403 | 40297 ft | 475 kts | 282° |
| 2026-04-26 15:36 | 51.07609 | -8.50244 | 40289 ft | 474 kts | 282° |
| 2026-04-26 15:36 | 51.13392 | -8.91116 | 40288 ft | 473 kts | 275° |
| 2026-04-26 15:37 | 51.13672 | -9.33069 | 40297 ft | 475 kts | 270° |
| 2026-04-26 15:37 | 51.13600 | -9.75212 | 40299 ft | 476 kts | 270° |
| 2026-04-26 15:38 | 51.13380 | -10.17130 | 40307 ft | 476 kts | 269° |
| 2026-04-26 15:38 | 51.13007 | -10.59175 | 40309 ft | 474 kts | 269° |
| 2026-04-26 15:39 | 51.12485 | -11.01183 | 40312 ft | 474 kts | 269° |
| 2026-04-26 15:39 | 51.12051 | -11.29346 | 40312 ft | 475 kts | 269° |
| 2026-04-26 15:40 | 51.11137 | -11.78179 | 40313 ft | 474 kts | 269° |
| 2026-04-26 15:40 | 51.10022 | -12.26927 | 40310 ft | 473 kts | 268° |
| 2026-04-26 15:41 | 51.08903 | -12.68719 | 40310 ft | 472 kts | 268° |
| 2026-04-26 15:41 | 51.07853 | -13.03685 | 40313 ft | 472 kts | 268° |
| 2026-04-26 15:42 | 51.06461 | -13.45422 | 40319 ft | 471 kts | 268° |
| 2026-04-26 15:42 | 51.04938 | -13.86714 | 40315 ft | 471 kts | 268° |
| 2026-04-26 15:43 | 51.03263 | -14.28134 | 40314 ft | 470 kts | 268° |
| 2026-04-26 15:44 | 51.00479 | -14.90115 | 40315 ft | 469 kts | 267° |
| 2026-04-26 15:44 | 51.06635 | -15.29642 | 40312 ft | 463 kts | 290° |
| 2026-04-26 15:44 | 51.10941 | -15.48915 | 40309 ft | 460 kts | 290° |
| 2026-04-26 15:45 | 51.23519 | -16.06690 | 40311 ft | 458 kts | 290° |
| 2026-04-26 15:46 | 51.35750 | -16.64473 | 40309 ft | 457 kts | 289° |
| 2026-04-26 15:46 | 51.42406 | -16.96631 | 40306 ft | 457 kts | 289° |
| 2026-04-26 15:47 | 51.55447 | -17.61197 | 40298 ft | 457 kts | 288° |
| 2026-04-26 15:48 | 51.63143 | -18.00329 | 40303 ft | 458 kts | 288° |
| 2026-04-26 15:48 | 51.70699 | -18.39543 | 40297 ft | 458 kts | 287° |
| 2026-04-26 15:49 | 51.78125 | -18.78891 | 40295 ft | 458 kts | 287° |
| 2026-04-26 15:49 | 51.85417 | -19.18360 | 40295 ft | 458 kts | 287° |
| 2026-04-26 15:50 | 51.92536 | -19.57727 | 40293 ft | 458 kts | 286° |
| 2026-04-26 15:50 | 51.99555 | -19.97397 | 40288 ft | 457 kts | 285° |
| 2026-04-26 15:51 | 52.05387 | -20.37502 | 40289 ft | 455 kts | 282° |
| 2026-04-26 15:51 | 52.11016 | -20.77720 | 40284 ft | 455 kts | 282° |
| 2026-04-26 15:52 | 52.16495 | -21.17979 | 40277 ft | 454 kts | 282° |
| 2026-04-26 15:52 | 52.21824 | -21.58230 | 40274 ft | 454 kts | 281° |
| 2026-04-26 15:53 | 52.27011 | -21.98543 | 40263 ft | 453 kts | 281° |
| 2026-04-26 15:53 | 52.32019 | -22.38612 | 40254 ft | 453 kts | 280° |
| 2026-04-26 15:54 | 52.36929 | -22.79087 | 40240 ft | 453 kts | 279° |
| 2026-04-26 15:54 | 52.41710 | -23.19739 | 40230 ft | 456 kts | 279° |
| 2026-04-26 15:55 | 52.46371 | -23.60644 | 40208 ft | 457 kts | 279° |
| 2026-04-26 15:55 | 52.50898 | -24.01708 | 40206 ft | 457 kts | 278° |
| 2026-04-26 15:56 | 52.55278 | -24.42813 | 40194 ft | 456 kts | 278° |
| 2026-04-26 15:56 | 52.59502 | -24.83854 | 40180 ft | 454 kts | 277° |
| 2026-04-26 15:57 | 52.63567 | -25.24823 | 40157 ft | 452 kts | 277° |
| 2026-04-26 15:57 | 52.67487 | -25.65809 | 40146 ft | 453 kts | 276° |
| 2026-04-26 15:58 | 52.71265 | -26.06863 | 40121 ft | 452 kts | 275° |
| 2026-04-26 15:58 | 52.74872 | -26.47669 | 40110 ft | 452 kts | 275° |
| 2026-04-26 15:59 | 52.78354 | -26.88715 | 40092 ft | 451 kts | 275° |
| 2026-04-26 15:59 | 52.81694 | -27.29824 | 40070 ft | 451 kts | 274° |
| 2026-04-26 16:00 | 52.84894 | -27.71034 | 40055 ft | 451 kts | 274° |
| 2026-04-26 16:00 | 52.87945 | -28.12204 | 40037 ft | 450 kts | 273° |
| 2026-04-26 16:01 | 52.90848 | -28.53380 | 40018 ft | 453 kts | 272° |
| 2026-04-26 16:01 | 52.93628 | -28.94868 | 39977 ft | 452 kts | 271° |
| 2026-04-26 16:02 | 52.96240 | -29.36037 | 39963 ft | 451 kts | 271° |
| 2026-04-26 16:02 | 52.98722 | -29.77497 | 39934 ft | 452 kts | 270° |
| 2026-04-26 16:03 | 53.00838 | -30.19240 | 39906 ft | 453 kts | 268° |
| 2026-04-26 16:03 | 53.02419 | -30.61130 | 39889 ft | 455 kts | 268° |
| 2026-04-26 16:04 | 53.03894 | -31.03114 | 39866 ft | 457 kts | 267° |
| 2026-04-26 16:04 | 53.05229 | -31.45373 | 39847 ft | 457 kts | 266° |
| 2026-04-26 16:05 | 53.06413 | -31.87716 | 39846 ft | 459 kts | 266° |
| 2026-04-26 16:05 | 53.07442 | -32.29857 | 39825 ft | 459 kts | 265° |
| 2026-04-26 16:06 | 53.08329 | -32.72325 | 39825 ft | 459 kts | 265° |
| 2026-04-26 16:06 | 53.09064 | -33.14776 | 39812 ft | 459 kts | 264° |
| 2026-04-26 16:07 | 53.09648 | -33.57271 | 39804 ft | 460 kts | 264° |
| 2026-04-26 16:07 | 53.10082 | -33.99872 | 39790 ft | 460 kts | 264° |
| 2026-04-26 16:08 | 53.10363 | -34.42543 | 39776 ft | 462 kts | 264° |
| 2026-04-26 16:08 | 53.10491 | -34.85443 | 39771 ft | 465 kts | 263° |
| 2026-04-26 16:09 | 53.10467 | -35.28180 | 39772 ft | 465 kts | 264° |
| 2026-04-26 16:09 | 53.10287 | -35.71461 | 39742 ft | 467 kts | 264° |
| 2026-04-26 16:10 | 53.09949 | -36.14792 | 39728 ft | 468 kts | 264° |
| 2026-04-26 16:10 | 53.09452 | -36.58155 | 39719 ft | 468 kts | 263° |
| 2026-04-26 16:11 | 53.08798 | -37.01548 | 39700 ft | 469 kts | 263° |